Time;durP1;ratioP1;P1;durP2;ratioP2;P2;SDS_P1;SDS_P2;PMS_P1;PMS_P2;Temp;Humidity;BMP_temperature;BMP_pressure;BME280_temperature;BME280_humidity;BME280_pressure;Samples;Min_cycle;Max_cycle;Signal;HPM_P1;HPM_P2
2020/12/24 00:01:56;;;;;;;0.57;0.57;;;9.90;99.90;;;;;;5019997;28;20201;-84
2020/12/24 00:04:21;;;;;;;0.20;0.20;;;9.80;99.90;;;;;;5013564;28;20270;-84
2020/12/24 00:06:47;;;;;;;0.37;0.30;;;9.80;99.90;;;;;;5012596;28;20183;-85
2020/12/24 00:09:13;;;;;;;0.13;0.13;;;9.70;99.90;;;;;;5030038;28;20198;-85
2020/12/24 00:11:38;;;;;;;0.10;0.10;;;9.70;99.90;;;;;;5028995;28;20257;-85
2020/12/24 00:14:04;;;;;;;0.10;0.10;;;9.70;99.90;;;;;;5029168;28;20608;-84
2020/12/24 00:16:30;;;;;;;0.10;0.10;;;9.70;99.90;;;;;;5009329;28;20656;-85
2020/12/24 00:18:56;;;;;;;0.20;0.20;;;9.60;99.90;;;;;;5016777;28;20187;-85
2020/12/24 00:21:21;;;;;;;0.10;0.10;;;9.50;99.90;;;;;;5015921;28;20193;-84
2020/12/24 00:23:47;;;;;;;0.10;0.10;;;9.50;99.90;;;;;;5017136;28;20209;-84
2020/12/24 00:26:12;;;;;;;0.10;0.10;;;9.50;99.90;;;;;;5031002;28;20833;-84
2020/12/24 00:28:38;;;;;;;0.10;0.10;;;9.50;99.90;;;;;;5015403;28;20178;-85
2020/12/24 00:31:03;;;;;;;0.30;0.30;;;9.50;99.90;;;;;;5015721;28;20268;-84
2020/12/24 00:33:29;;;;;;;0.33;0.33;;;9.50;99.90;;;;;;5032539;28;20209;-85
2020/12/24 00:35:54;;;;;;;0.57;0.40;;;9.50;99.90;;;;;;5016138;28;20182;-85
2020/12/24 00:38:20;;;;;;;0.10;0.10;;;9.50;99.90;;;;;;5028529;28;20310;-84
2020/12/24 00:40:46;;;;;;;0.10;0.10;;;9.40;99.90;;;;;;5014817;28;20178;-84
2020/12/24 00:43:12;;;;;;;6.50;0.23;;;9.40;99.90;;;;;;5016376;28;20206;-84
2020/12/24 00:45:37;;;;;;;0.10;0.10;;;9.50;99.90;;;;;;5032545;28;20185;-84
2020/12/24 00:48:03;;;;;;;0.00;0.00;;;9.60;99.90;;;;;;5032687;28;20342;-84
2020/12/24 00:50:28;;;;;;;0.10;0.10;;;9.60;99.90;;;;;;5032804;28;20190;-85
2020/12/24 00:52:54;;;;;;;0.10;0.10;;;9.70;99.90;;;;;;5016090;28;20293;-85
2020/12/24 00:55:20;;;;;;;0.10;0.10;;;9.70;99.90;;;;;;5014486;28;20244;-84
2020/12/24 00:57:45;;;;;;;0.47;0.40;;;9.70;99.90;;;;;;5033698;28;20205;-84
2020/12/24 01:00:11;;;;;;;0.10;0.10;;;9.80;99.90;;;;;;5014448;28;20190;-84
2020/12/24 01:02:36;;;;;;;0.27;0.27;;;9.80;99.90;;;;;;5032738;28;20271;-84
2020/12/24 01:05:05;;;;;;;0.00;0.00;;;9.90;99.90;;;;;;5014444;28;20217;-84
2020/12/24 01:07:31;;;;;;;0.10;0.10;;;9.90;99.90;;;;;;5033429;28;20543;-84
2020/12/24 01:09:56;;;;;;;0.10;0.10;;;9.90;99.90;;;;;;5014320;28;20186;-85
2020/12/24 01:12:22;;;;;;;0.10;0.10;;;9.90;99.90;;;;;;5015293;28;20250;-84
2020/12/24 01:14:47;;;;;;;0.10;0.10;;;9.80;99.90;;;;;;5031764;28;20202;-85
2020/12/24 01:17:13;;;;;;;0.27;0.20;;;9.70;99.90;;;;;;5015531;28;20217;-85
2020/12/24 01:19:39;;;;;;;0.10;0.10;;;9.60;99.90;;;;;;5013663;28;20290;-85
2020/12/24 01:22:04;;;;;;;0.10;0.10;;;9.70;99.90;;;;;;5016604;28;20233;-85
2020/12/24 01:24:30;;;;;;;0.10;0.10;;;9.80;99.90;;;;;;5031963;28;20540;-84
2020/12/24 01:26:55;;;;;;;0.10;0.10;;;9.80;99.90;;;;;;5015716;28;20669;-84
2020/12/24 01:29:21;;;;;;;0.00;0.00;;;9.80;99.90;;;;;;5014700;28;20183;-85
2020/12/24 01:31:47;;;;;;;0.00;0.00;;;9.60;99.90;;;;;;5012405;28;20181;-85
2020/12/24 01:34:13;;;;;;;0.00;0.00;;;9.60;99.90;;;;;;5032465;28;20205;-85
2020/12/24 01:36:39;;;;;;;0.10;0.10;;;9.60;99.90;;;;;;5015172;28;20188;-85
2020/12/24 01:39:05;;;;;;;0.10;0.10;;;9.60;99.90;;;;;;5032191;28;20184;-84
2020/12/24 01:41:31;;;;;;;0.00;0.00;;;9.60;99.90;;;;;;5013732;28;20181;-84
2020/12/24 01:43:57;;;;;;;0.10;0.10;;;9.70;99.90;;;;;;5031668;28;20249;-85
2020/12/24 01:46:22;;;;;;;0.00;0.00;;;9.70;99.90;;;;;;5031713;28;20600;-84
2020/12/24 01:48:48;;;;;;;0.30;0.30;;;9.60;99.90;;;;;;5032547;28;20175;-84
2020/12/24 01:51:26;;;;;;;0.07;0.07;;;9.70;99.90;;;;;;5030250;28;20183;-85
2020/12/24 01:53:53;;;;;;;0.10;0.10;;;9.60;99.90;;;;;;5032279;28;20280;-84
2020/12/24 01:56:21;;;;;;;0.67;0.20;;;9.40;99.90;;;;;;5031744;28;20210;-85
2020/12/24 01:58:47;;;;;;;1.03;0.57;;;9.50;99.90;;;;;;5014442;28;20190;-84
2020/12/24 02:01:12;;;;;;;0.10;0.10;;;9.50;99.90;;;;;;5014998;28;20269;-85
2020/12/24 02:03:38;;;;;;;0.00;0.00;;;9.60;99.90;;;;;;5037507;28;20215;-84
2020/12/24 02:06:04;;;;;;;0.77;0.70;;;9.60;99.90;;;;;;5036122;28;20666;-84
2020/12/24 02:08:29;;;;;;;0.10;0.10;;;9.60;99.90;;;;;;5020490;28;20200;-84
2020/12/24 02:10:55;;;;;;;0.40;0.10;;;9.50;99.90;;;;;;5008817;28;20589;-84
2020/12/24 02:13:21;;;;;;;0.10;0.10;;;9.50;99.90;;;;;;5014303;28;20757;-86
2020/12/24 02:15:46;;;;;;;0.43;0.20;;;9.50;99.90;;;;;;5002965;28;20559;-85
2020/12/24 02:18:12;;;;;;;0.10;0.10;;;9.40;99.90;;;;;;5014700;28;20274;-84
2020/12/24 02:20:44;;;;;;;0.20;0.20;;;9.30;99.90;;;;;;5012081;28;20181;-86
2020/12/24 02:23:11;;;;;;;0.10;0.10;;;9.30;99.90;;;;;;5026335;28;20233;-85
2020/12/24 02:25:37;;;;;;;0.10;0.10;;;9.30;99.90;;;;;;5030505;28;20183;-84
2020/12/24 02:28:04;;;;;;;0.00;0.00;;;9.30;99.90;;;;;;5013909;28;20737;-84
2020/12/24 02:30:30;;;;;;;0.10;0.10;;;9.20;99.90;;;;;;5013045;28;20720;-85
2020/12/24 02:32:56;;;;;;;0.10;0.10;;;9.20;99.90;;;;;;5013739;28;20210;-86
2020/12/24 02:35:22;;;;;;;4.63;0.20;;;9.10;99.90;;;;;;5028697;28;20176;-86
2020/12/24 02:37:47;;;;;;;0.07;0.07;;;9.10;99.90;;;;;;5014031;28;20178;-85
2020/12/24 02:40:13;;;;;;;0.20;0.20;;;9.10;99.90;;;;;;5012515;28;20526;-84
2020/12/24 02:42:39;;;;;;;0.10;0.10;;;9.00;99.90;;;;;;5013652;28;20210;-84
2020/12/24 02:45:06;;;;;;;0.00;0.00;;;9.00;99.90;;;;;;5013489;28;20743;-84
2020/12/24 02:47:32;;;;;;;0.30;0.20;;;9.00;99.90;;;;;;5012843;28;20193;-85
2020/12/24 02:49:58;;;;;;;0.40;0.17;;;9.10;99.90;;;;;;5029235;28;20549;-85
2020/12/24 02:52:24;;;;;;;0.00;0.00;;;9.10;99.90;;;;;;5013372;28;20208;-85
2020/12/24 02:54:50;;;;;;;0.10;0.10;;;9.10;99.90;;;;;;5013568;28;20629;-86
2020/12/24 02:57:16;;;;;;;0.17;0.17;;;9.00;99.90;;;;;;5013078;28;20182;-84
2020/12/24 02:59:41;;;;;;;0.00;0.00;;;8.90;99.90;;;;;;5012849;28;22240;-85
2020/12/24 03:02:07;;;;;;;0.20;0.20;;;8.80;99.90;;;;;;5029639;28;20211;-85
2020/12/24 03:04:33;;;;;;;0.10;0.10;;;8.80;99.90;;;;;;5012613;28;20226;-84
2020/12/24 03:06:59;;;;;;;0.10;0.10;;;8.80;99.90;;;;;;5002256;28;20217;-85
2020/12/24 03:09:24;;;;;;;0.00;0.00;;;8.60;99.90;;;;;;5013558;28;20218;-85
2020/12/24 03:11:50;;;;;;;0.10;0.10;;;8.60;99.90;;;;;;5012301;28;20182;-85
2020/12/24 03:14:17;;;;;;;3.37;0.30;;;8.50;99.90;;;;;;5013979;28;20622;-85
2020/12/24 03:16:43;;;;;;;0.00;0.00;;;8.40;99.90;;;;;;5011577;28;20179;-86
2020/12/24 03:19:08;;;;;;;0.20;0.20;;;8.30;99.90;;;;;;5031375;28;20773;-85
2020/12/24 03:21:35;;;;;;;0.30;0.10;;;8.30;99.90;;;;;;5011792;28;20220;-85
2020/12/24 03:24:00;;;;;;;0.20;0.20;;;8.20;99.90;;;;;;5007507;28;20198;-84
2020/12/24 03:26:26;;;;;;;0.00;0.00;;;8.00;99.90;;;;;;5013023;28;20664;-85
2020/12/24 03:28:51;;;;;;;0.10;0.10;;;7.90;99.90;;;;;;5030710;28;20185;-84
2020/12/24 03:31:22;;;;;;;0.10;0.10;;;7.90;99.90;;;;;;5011002;28;20175;-85
2020/12/24 03:33:48;;;;;;;0.03;0.03;;;7.80;99.90;;;;;;5027906;28;20300;-85
2020/12/24 03:36:13;;;;;;;0.53;0.30;;;7.80;99.90;;;;;;5030172;28;20233;-85
2020/12/24 03:38:39;;;;;;;0.00;0.00;;;7.70;99.90;;;;;;5012341;28;20186;-85
2020/12/24 03:41:04;;;;;;;0.10;0.10;;;7.70;99.90;;;;;;5010797;28;20194;-85
2020/12/24 03:43:30;;;;;;;0.73;0.13;;;7.70;99.90;;;;;;5013072;28;20206;-85
2020/12/24 03:45:56;;;;;;;0.83;0.30;;;7.70;99.90;;;;;;5013322;28;20704;-86
2020/12/24 03:48:21;;;;;;;2.13;1.07;;;7.70;99.90;;;;;;5012831;28;20260;-85
2020/12/24 03:50:47;;;;;;;0.10;0.10;;;7.70;99.90;;;;;;5011430;28;20200;-85
2020/12/24 03:53:13;;;;;;;0.40;0.40;;;7.60;99.90;;;;;;5016747;28;22013;-86
2020/12/24 03:55:38;;;;;;;0.10;0.10;;;7.50;99.90;;;;;;5027486;28;20726;-85
2020/12/24 03:58:04;;;;;;;0.10;0.10;;;7.50;99.90;;;;;;5017083;28;20180;-85
2020/12/24 04:00:29;;;;;;;0.13;0.13;;;7.60;99.90;;;;;;5032320;28;20184;-85
2020/12/24 04:02:55;;;;;;;0.10;0.10;;;7.60;99.90;;;;;;5015958;28;20202;-85
2020/12/24 04:05:20;;;;;;;0.10;0.10;;;7.60;99.90;;;;;;5016363;28;20229;-84
2020/12/24 04:07:49;;;;;;;0.10;0.10;;;7.70;99.90;;;;;;5015906;28;20228;-85
2020/12/24 04:10:18;;;;;;;0.03;0.03;;;7.80;99.90;;;;;;5015007;28;20218;-84
2020/12/24 04:12:43;;;;;;;0.07;0.07;;;7.90;99.90;;;;;;5015922;28;20199;-85
2020/12/24 04:15:09;;;;;;;0.10;0.10;;;7.90;99.90;;;;;;5033532;28;20310;-83
2020/12/24 04:17:35;;;;;;;2.53;0.93;;;7.80;99.90;;;;;;5034320;28;20650;-84
2020/12/24 04:20:00;;;;;;;0.10;0.10;;;7.80;99.90;;;;;;5015237;28;20190;-84
2020/12/24 04:22:26;;;;;;;0.10;0.10;;;7.80;99.90;;;;;;5016033;28;20682;-84
2020/12/24 04:24:51;;;;;;;0.10;0.10;;;7.80;99.90;;;;;;5016682;28;20816;-85
2020/12/24 04:27:17;;;;;;;0.20;0.20;;;7.90;99.90;;;;;;5015821;28;20597;-84
2020/12/24 04:29:43;;;;;;;0.00;0.00;;;8.00;99.90;;;;;;5032448;28;20216;-85
2020/12/24 04:32:09;;;;;;;0.20;0.20;;;8.00;99.90;;;;;;5015361;28;21081;-85
2020/12/24 04:34:34;;;;;;;3.50;0.63;;;8.00;99.90;;;;;;5014804;28;20215;-85
2020/12/24 04:37:00;;;;;;;0.27;0.20;;;8.10;99.90;;;;;;5016420;28;20556;-85
2020/12/24 04:39:26;;;;;;;0.63;0.20;;;8.20;99.90;;;;;;5014565;28;20170;-85
2020/12/24 04:41:58;;;;;;;0.00;0.00;;;8.30;99.90;;;;;;5015859;28;20660;-85
2020/12/24 04:44:28;;;;;;;0.00;0.00;;;8.30;99.90;;;;;;5014689;28;20181;-84
2020/12/24 04:46:55;;;;;;;0.00;0.00;;;8.40;99.90;;;;;;5014869;28;20183;-83
2020/12/24 04:49:24;;;;;;;0.00;0.00;;;8.50;99.90;;;;;;5015613;28;20177;-85
2020/12/24 04:51:50;;;;;;;0.10;0.10;;;8.50;99.90;;;;;;5030342;28;20217;-85
2020/12/24 04:54:16;;;;;;;1.13;0.53;;;8.60;99.90;;;;;;5016254;28;20893;-84
2020/12/24 04:56:42;;;;;;;1.80;0.40;;;8.70;99.90;;;;;;5014955;28;20261;-84
2020/12/24 04:59:07;;;;;;;0.20;0.20;;;8.60;99.90;;;;;;5032468;28;20263;-85
2020/12/24 05:01:33;;;;;;;0.00;0.00;;;8.70;99.90;;;;;;5009865;28;20178;-85
2020/12/24 05:04:00;;;;;;;0.00;0.00;;;8.80;99.90;;;;;;5014475;28;20217;-85
2020/12/24 05:06:26;;;;;;;0.10;0.10;;;8.80;99.90;;;;;;5033492;28;20178;-84
2020/12/24 05:08:56;;;;;;;1.23;0.30;;;8.80;99.90;;;;;;5014723;28;20182;-84
2020/12/24 05:11:30;;;;;;;0.10;0.10;;;8.80;99.90;;;;;;5032237;28;20186;-85
2020/12/24 05:14:17;;;;;;;0.43;0.20;;;8.80;99.90;;;;;;5015042;28;20205;-83
2020/12/24 05:17:03;;;;;;;0.10;0.10;;;8.80;99.90;;;;;;5032217;28;20174;-85
2020/12/24 05:19:31;;;;;;;0.00;0.00;;;8.80;99.90;;;;;;5023830;28;20265;-85
2020/12/24 05:21:57;;;;;;;0.10;0.10;;;8.80;99.90;;;;;;5014938;28;20194;-85
2020/12/24 05:24:33;;;;;;;0.10;0.10;;;8.90;99.90;;;;;;5028090;28;20190;-85
2020/12/24 05:27:10;;;;;;;0.10;0.10;;;8.90;99.90;;;;;;5015022;28;20178;-85
2020/12/24 05:29:38;;;;;;;0.20;0.20;;;9.00;99.90;;;;;;5015363;28;20178;-85
2020/12/24 05:32:05;;;;;;;0.10;0.10;;;9.10;99.90;;;;;;5013133;28;20290;-86
2020/12/24 05:34:31;;;;;;;0.10;0.10;;;9.10;99.90;;;;;;5017781;28;20209;-84
2020/12/24 05:37:13;;;;;;;0.10;0.10;;;9.10;99.90;;;;;;5005906;28;20219;-84
2020/12/24 05:39:40;;;;;;;0.10;0.10;;;9.00;99.90;;;;;;5008475;28;20309;-84
2020/12/24 05:42:06;;;;;;;0.10;0.10;;;9.00;99.90;;;;;;5020389;28;20292;-83
2020/12/24 05:44:33;;;;;;;0.83;0.20;;;8.90;99.90;;;;;;5026213;28;20182;-84
2020/12/24 05:46:58;;;;;;;0.10;0.10;;;8.90;99.90;;;;;;5031314;28;20190;-83
2020/12/24 05:49:25;;;;;;;0.10;0.10;;;8.90;99.90;;;;;;5012618;28;20401;-83
2020/12/24 05:52:09;;;;;;;0.20;0.20;;;8.90;99.90;;;;;;5029531;28;20193;-84
2020/12/24 05:54:35;;;;;;;0.63;0.63;;;9.00;99.90;;;;;;5030409;28;20261;-83
2020/12/24 05:57:02;;;;;;;1.87;0.57;;;9.00;99.90;;;;;;5013375;28;20181;-83
2020/12/24 05:59:29;;;;;;;0.00;0.00;;;8.90;99.90;;;;;;5031158;28;20592;-84
2020/12/24 06:02:12;;;;;;;0.10;0.10;;;8.90;99.90;;;;;;5030933;28;20182;-84
2020/12/24 06:04:44;;;;;;;0.13;0.13;;;8.90;99.90;;;;;;5014114;28;20257;-84
2020/12/24 06:07:20;;;;;;;0.10;0.10;;;8.90;99.90;;;;;;5012842;28;20191;-83
2020/12/24 06:09:47;;;;;;;0.10;0.10;;;8.80;99.90;;;;;;5013012;28;20188;-83
2020/12/24 06:12:17;;;;;;;0.30;0.20;;;8.90;99.90;;;;;;5013493;28;20206;-85
2020/12/24 06:14:47;;;;;;;1.53;0.30;;;8.80;99.90;;;;;;5013178;28;20301;-83
2020/12/24 06:17:17;;;;;;;0.00;0.00;;;8.90;99.90;;;;;;5032084;28;20178;-85
2020/12/24 06:19:44;;;;;;;0.33;0.10;;;8.90;99.90;;;;;;5012755;28;20186;-85
2020/12/24 06:22:10;;;;;;;0.00;0.00;;;8.80;99.90;;;;;;5014870;28;20706;-85
2020/12/24 06:24:49;;;;;;;0.10;0.10;;;8.80;99.90;;;;;;5028565;28;20217;-86
2020/12/24 06:27:46;;;;;;;0.10;0.10;;;8.80;99.90;;;;;;5003166;28;20201;-85
2020/12/24 06:30:15;;;;;;;0.40;0.40;;;8.80;99.90;;;;;;5010151;28;20170;-83
2020/12/24 06:32:47;;;;;;;3.20;0.43;;;8.70;99.90;;;;;;5012363;28;20210;-84
2020/12/24 06:35:31;;;;;;;0.10;0.10;;;8.70;99.90;;;;;;5014170;28;20248;-84
2020/12/24 06:37:57;;;;;;;0.30;0.30;;;8.70;99.90;;;;;;5031028;28;20178;-83
2020/12/24 06:40:35;;;;;;;0.10;0.10;;;8.70;99.90;;;;;;5011990;28;20236;-84
2020/12/24 06:43:01;;;;;;;0.70;0.63;;;8.60;99.90;;;;;;5013970;28;20198;-84
2020/12/24 06:45:31;;;;;;;0.00;0.00;;;8.60;99.90;;;;;;5013462;28;20192;-84
2020/12/24 06:48:19;;;;;;;0.10;0.10;;;8.60;99.90;;;;;;5011736;28;20190;-83
2020/12/24 06:50:46;;;;;;;0.00;0.00;;;8.50;99.90;;;;;;5005980;28;20190;-86
2020/12/24 06:53:31;;;;;;;0.43;0.43;;;8.50;99.90;;;;;;5011216;28;20698;-84
2020/12/24 06:56:09;;;;;;;0.10;0.10;;;8.50;99.90;;;;;;5030310;28;20182;-84
2020/12/24 06:59:03;;;;;;;0.17;0.17;;;8.50;99.90;;;;;;5012044;28;20250;-83
2020/12/24 07:01:37;;;;;;;0.10;0.10;;;8.50;99.90;;;;;;5030983;28;20182;-83
2020/12/24 07:04:08;;;;;;;0.00;0.00;;;8.50;99.90;;;;;;5016408;28;20209;-83
2020/12/24 07:06:40;;;;;;;0.20;0.20;;;8.50;99.90;;;;;;5016373;28;20211;-84
2020/12/24 07:09:10;;;;;;;0.10;0.10;;;8.50;99.90;;;;;;5023492;28;20186;-84
2020/12/24 07:11:49;;;;;;;0.10;0.10;;;8.50;99.90;;;;;;5037876;28;20174;-83
2020/12/24 07:14:34;;;;;;;0.10;0.10;;;8.50;99.90;;;;;;5019012;28;20209;-83
2020/12/24 07:17:17;;;;;;;0.00;0.00;;;8.50;99.90;;;;;;5015035;28;20214;-83
2020/12/24 07:19:46;;;;;;;0.10;0.10;;;8.50;99.90;;;;;;5017524;28;20241;-84
2020/12/24 07:22:14;;;;;;;0.10;0.10;;;8.50;99.90;;;;;;5016658;28;20217;-85
2020/12/24 07:24:39;;;;;;;0.53;0.50;;;8.50;99.90;;;;;;5022214;28;20194;-84
2020/12/24 07:27:07;;;;;;;0.10;0.10;;;8.50;99.90;;;;;;5036214;28;20178;-83
2020/12/24 07:29:34;;;;;;;0.10;0.10;;;8.50;99.90;;;;;;5018292;28;20194;-84
2020/12/24 07:32:05;;;;;;;0.10;0.10;;;8.50;99.90;;;;;;5013645;28;20202;-83
2020/12/24 07:34:34;;;;;;;0.03;0.03;;;8.50;99.90;;;;;;5017687;28;20209;-85
2020/12/24 07:37:00;;;;;;;0.10;0.10;;;8.60;99.90;;;;;;5011785;28;20182;-83
2020/12/24 07:39:26;;;;;;;0.10;0.10;;;8.50;99.90;;;;;;5018762;28;20184;-85
2020/12/24 07:41:52;;;;;;;0.10;0.10;;;8.60;99.90;;;;;;5021151;28;20190;-82
2020/12/24 07:44:19;;;;;;;0.10;0.10;;;8.60;99.90;;;;;;5032422;28;20178;-82
2020/12/24 07:46:49;;;;;;;0.67;0.67;;;8.60;99.90;;;;;;5018971;28;20209;-81
2020/12/24 07:49:15;;;;;;;0.10;0.10;;;8.50;99.90;;;;;;5010913;28;20178;-82
2020/12/24 07:51:41;;;;;;;0.17;0.17;;;8.60;99.90;;;;;;5016199;28;20242;-82
2020/12/24 07:54:15;;;;;;;0.20;0.20;;;8.60;99.90;;;;;;5033284;28;20219;-82
2020/12/24 07:56:47;;;;;;;0.00;0.00;;;8.60;99.90;;;;;;5029804;28;20206;-81
2020/12/24 07:59:16;;;;;;;0.00;0.00;;;8.50;99.90;;;;;;5005186;28;20182;-81
2020/12/24 08:01:42;;;;;;;0.07;0.07;;;8.50;99.90;;;;;;5018258;28;20206;-81
2020/12/24 08:04:08;;;;;;;0.10;0.10;;;8.50;99.90;;;;;;5027196;28;20690;-82
2020/12/24 08:06:34;;;;;;;0.40;0.40;;;8.40;99.90;;;;;;5027558;28;20666;-81
2020/12/24 08:09:17;;;;;;;0.00;0.00;;;8.40;99.90;;;;;;5032140;28;20918;-81
2020/12/24 08:11:53;;;;;;;0.10;0.10;;;8.40;99.90;;;;;;5031736;28;20181;-81
2020/12/24 08:14:27;;;;;;;0.10;0.10;;;8.40;99.90;;;;;;5017385;28;20209;-81
2020/12/24 08:16:58;;;;;;;0.00;0.00;;;8.40;99.90;;;;;;5018211;28;20205;-82
2020/12/24 08:19:46;;;;;;;0.10;0.10;;;8.40;99.90;;;;;;5008999;28;20593;-82
2020/12/24 08:22:23;;;;;;;0.10;0.10;;;8.50;99.90;;;;;;5028400;28;20214;-82
2020/12/24 08:24:51;;;;;;;0.10;0.10;;;8.50;99.90;;;;;;5025687;28;20180;-82
2020/12/24 08:27:18;;;;;;;0.10;0.10;;;8.50;99.90;;;;;;5008356;28;20199;-81
2020/12/24 08:29:45;;;;;;;0.03;0.03;;;8.50;99.90;;;;;;5023764;28;20263;-82
2020/12/24 08:32:11;;;;;;;0.20;0.20;;;8.50;99.90;;;;;;5028460;28;20251;-85
2020/12/24 08:34:37;;;;;;;0.00;0.00;;;8.60;99.90;;;;;;5028392;28;20202;-82
2020/12/24 08:37:02;;;;;;;0.10;0.10;;;8.60;99.90;;;;;;5030636;28;20252;-82
2020/12/24 08:39:29;;;;;;;0.20;0.20;;;8.70;99.90;;;;;;5009785;28;20178;-84
2020/12/24 08:41:57;;;;;;;0.00;0.00;;;8.80;99.90;;;;;;5029599;28;20182;-83
2020/12/24 08:44:25;;;;;;;0.10;0.10;;;8.70;99.90;;;;;;5016186;28;20178;-85
2020/12/24 08:47:11;;;;;;;0.20;0.20;;;8.80;99.90;;;;;;5015800;28;20195;-83
2020/12/24 08:49:41;;;;;;;0.10;0.10;;;8.80;99.90;;;;;;5015851;28;20182;-82
2020/12/24 08:52:20;;;;;;;0.03;0.03;;;8.70;99.90;;;;;;5030847;28;20272;-84
2020/12/24 08:55:06;;;;;;;0.07;0.07;;;8.80;99.90;;;;;;5014725;28;20300;-83
2020/12/24 08:57:32;;;;;;;0.10;0.10;;;8.80;99.90;;;;;;5030689;28;20210;-83
2020/12/24 09:00:08;;;;;;;0.10;0.10;;;8.80;99.90;;;;;;5012731;28;20190;-82
2020/12/24 09:02:36;;;;;;;0.20;0.20;;;8.70;99.90;;;;;;5013022;28;20290;-84
2020/12/24 09:05:04;;;;;;;0.00;0.00;;;8.70;99.90;;;;;;5015521;28;20218;-84
2020/12/24 09:07:32;;;;;;;0.10;0.10;;;8.70;99.90;;;;;;5016267;28;20632;-84
2020/12/24 09:10:20;;;;;;;0.20;0.20;;;8.70;99.90;;;;;;5014817;28;20237;-84
2020/12/24 09:12:46;;;;;;;0.10;0.10;;;8.70;99.90;;;;;;5020808;28;20210;-84
2020/12/24 09:15:14;;;;;;;0.20;0.20;;;8.70;99.90;;;;;;5034446;28;20214;-85
2020/12/24 09:17:53;;;;;;;0.20;0.20;;;8.70;99.90;;;;;;5034268;28;20542;-85
2020/12/24 09:20:30;;;;;;;0.10;0.10;;;8.80;99.90;;;;;;5016429;28;20269;-85
2020/12/24 09:22:58;;;;;;;0.10;0.10;;;8.80;99.90;;;;;;5031940;28;20238;-85
2020/12/24 09:25:35;;;;;;;0.00;0.00;;;8.80;99.90;;;;;;5014483;28;20232;-84
2020/12/24 09:28:01;;;;;;;0.00;0.00;;;8.80;99.90;;;;;;5034270;28;20680;-84
2020/12/24 09:30:28;;;;;;;0.10;0.10;;;8.90;99.90;;;;;;5016271;28;20232;-84
2020/12/24 09:33:02;;;;;;;0.00;0.00;;;9.00;99.90;;;;;;5017139;28;20674;-84
2020/12/24 09:35:29;;;;;;;0.10;0.10;;;9.00;99.90;;;;;;5034515;28;20170;-84
2020/12/24 09:37:55;;;;;;;0.07;0.07;;;9.00;99.90;;;;;;5016595;28;20191;-85
2020/12/24 09:40:22;;;;;;;0.27;0.27;;;9.00;99.90;;;;;;5016334;28;20220;-84
2020/12/24 09:42:48;;;;;;;0.07;0.07;;;9.10;99.90;;;;;;5033791;28;20206;-84
2020/12/24 09:45:14;;;;;;;0.10;0.10;;;9.00;99.90;;;;;;5034182;28;20225;-85
2020/12/24 09:47:43;;;;;;;0.00;0.00;;;9.00;99.90;;;;;;5015864;28;20214;-84
2020/12/24 09:50:08;;;;;;;0.83;0.60;;;9.00;99.90;;;;;;5016726;28;20269;-85
2020/12/24 09:52:34;;;;;;;0.00;0.00;;;9.00;99.90;;;;;;5016372;28;20306;-84
2020/12/24 09:55:00;;;;;;;0.10;0.10;;;9.00;99.90;;;;;;5015635;28;20589;-84
2020/12/24 09:57:25;;;;;;;0.10;0.10;;;9.00;99.90;;;;;;5033982;28;20232;-84
2020/12/24 09:59:51;;;;;;;0.10;0.10;;;9.10;99.90;;;;;;5033448;28;20185;-84
2020/12/24 10:02:16;;;;;;;0.03;0.03;;;9.10;99.90;;;;;;5015871;28;20202;-84
2020/12/24 10:04:42;;;;;;;0.20;0.20;;;9.10;99.90;;;;;;5015652;28;20197;-85
2020/12/24 10:07:09;;;;;;;0.20;0.20;;;9.00;99.90;;;;;;5032546;28;20190;-84
2020/12/24 10:09:35;;;;;;;0.10;0.10;;;8.90;99.90;;;;;;5014550;28;20539;-84
2020/12/24 10:12:01;;;;;;;0.00;0.00;;;8.90;99.90;;;;;;5014780;28;20189;-85
2020/12/24 10:14:26;;;;;;;0.10;0.10;;;9.00;99.90;;;;;;5032706;28;20802;-85
2020/12/24 10:16:52;;;;;;;0.00;0.00;;;9.10;99.90;;;;;;5015011;28;20200;-84
2020/12/24 10:19:18;;;;;;;0.00;0.00;;;9.20;99.90;;;;;;5032324;28;20192;-84
2020/12/24 10:21:43;;;;;;;0.10;0.10;;;9.30;99.90;;;;;;5034055;28;20677;-84
2020/12/24 10:24:09;;;;;;;0.00;0.00;;;9.50;99.90;;;;;;5026063;28;20213;-84
2020/12/24 10:26:34;;;;;;;0.20;0.20;;;9.90;99.90;;;;;;5035053;28;20244;-84
2020/12/24 10:29:00;;;;;;;0.10;0.10;;;10.00;99.90;;;;;;5017219;28;20198;-84
2020/12/24 10:31:25;;;;;;;0.10;0.10;;;9.90;99.90;;;;;;5034170;28;20186;-83
2020/12/24 10:33:51;;;;;;;0.27;0.10;;;10.10;99.90;;;;;;5020413;28;20226;-84
2020/12/24 10:36:24;;;;;;;0.57;0.30;;;10.40;99.90;;;;;;5022134;28;20187;-84
2020/12/24 10:38:49;;;;;;;0.10;0.10;;;10.40;99.90;;;;;;5020063;28;20189;-85
2020/12/24 10:41:16;;;;;;;0.17;0.17;;;10.40;99.90;;;;;;5014717;28;20603;-84
2020/12/24 10:43:41;;;;;;;0.10;0.10;;;10.30;99.90;;;;;;5015320;28;20638;-85
2020/12/24 10:46:13;;;;;;;0.10;0.10;;;10.10;99.90;;;;;;5014759;28;20276;-84
2020/12/24 10:48:39;;;;;;;0.33;0.27;;;10.10;99.90;;;;;;5014961;28;20190;-84
2020/12/24 10:51:08;;;;;;;0.10;0.10;;;10.10;99.90;;;;;;5014529;28;20199;-84
2020/12/24 10:53:34;;;;;;;0.10;0.10;;;10.30;99.90;;;;;;5015680;28;20225;-85
2020/12/24 10:55:59;;;;;;;0.10;0.10;;;10.20;99.90;;;;;;5014979;28;20635;-85
2020/12/24 10:58:25;;;;;;;0.23;0.23;;;10.40;99.90;;;;;;5014823;28;20191;-85
2020/12/24 11:00:50;;;;;;;0.00;0.00;;;10.80;99.90;;;;;;5013866;28;20187;-84
2020/12/24 11:03:16;;;;;;;0.10;0.10;;;10.80;99.90;;;;;;5015236;28;20215;-85
2020/12/24 11:05:41;;;;;;;0.00;0.00;;;10.50;99.90;;;;;;5015001;28;20190;-84
2020/12/24 11:08:07;;;;;;;0.10;0.10;;;10.30;99.90;;;;;;5032864;28;20189;-85
2020/12/24 11:10:32;;;;;;;0.00;0.00;;;10.20;99.90;;;;;;5014268;28;20219;-84
2020/12/24 11:12:58;;;;;;;0.10;0.10;;;10.10;99.90;;;;;;5032216;28;20289;-85
2020/12/24 11:15:23;;;;;;;0.10;0.10;;;10.10;99.90;;;;;;5014497;28;20201;-84
2020/12/24 11:17:49;;;;;;;0.00;0.00;;;10.00;99.90;;;;;;5014597;28;20182;-84
2020/12/24 11:20:14;;;;;;;0.00;0.00;;;10.00;99.90;;;;;;5014531;28;20231;-84
2020/12/24 11:22:40;;;;;;;0.10;0.10;;;10.00;99.90;;;;;;5033999;28;20217;-84
2020/12/24 11:25:06;;;;;;;0.10;0.10;;;10.00;99.90;;;;;;5033796;28;20178;-85
2020/12/24 11:27:31;;;;;;;0.10;0.10;;;10.00;99.90;;;;;;5033357;28;20185;-84
2020/12/24 11:29:57;;;;;;;0.23;0.23;;;10.00;99.90;;;;;;5014481;28;20228;-84
2020/12/24 11:32:22;;;;;;;0.07;0.07;;;10.00;99.90;;;;;;5013680;28;20239;-84
2020/12/24 11:34:48;;;;;;;0.10;0.10;;;10.00;99.90;;;;;;5014070;28;20202;-84
2020/12/24 11:37:13;;;;;;;0.10;0.10;;;10.00;99.90;;;;;;5014075;28;20215;-85
2020/12/24 11:39:39;;;;;;;0.03;0.03;;;10.00;99.90;;;;;;5013989;28;20179;-84
2020/12/24 11:42:04;;;;;;;0.10;0.10;;;10.00;99.90;;;;;;5014484;28;21021;-84
2020/12/24 11:44:30;;;;;;;0.00;0.00;;;9.90;99.90;;;;;;5032381;28;20198;-84
2020/12/24 11:46:59;;;;;;;0.20;0.20;;;10.00;99.90;;;;;;5013966;28;20650;-84
2020/12/24 11:49:24;;;;;;;0.30;0.30;;;10.00;99.90;;;;;;5031779;28;20677;-85
2020/12/24 11:51:50;;;;;;;0.10;0.10;;;10.00;99.90;;;;;;5013836;28;20191;-85
2020/12/24 11:54:15;;;;;;;0.10;0.10;;;10.00;99.90;;;;;;5014292;28;20252;-87
2020/12/24 11:56:42;;;;;;;0.03;0.03;;;10.00;99.90;;;;;;5031891;28;20182;-84
2020/12/24 11:59:08;;;;;;;0.00;0.00;;;10.00;99.90;;;;;;5031849;28;20218;-84
2020/12/24 12:01:33;;;;;;;0.10;0.10;;;10.10;99.90;;;;;;5031819;28;20180;-84
2020/12/24 12:04:00;;;;;;;0.10;0.10;;;10.00;99.90;;;;;;5014341;28;20832;-85
2020/12/24 12:06:26;;;;;;;0.83;0.83;;;10.00;99.90;;;;;;5014557;28;20183;-84
2020/12/24 12:08:51;;;;;;;0.10;0.10;;;10.00;99.90;;;;;;5034433;28;20185;-85
2020/12/24 12:11:17;;;;;;;0.10;0.10;;;10.00;99.90;;;;;;5031211;28;20179;-84
2020/12/24 12:13:43;;;;;;;0.10;0.10;;;10.10;99.90;;;;;;5034707;28;20203;-84
2020/12/24 12:16:10;;;;;;;0.00;0.00;;;10.10;99.90;;;;;;5036701;28;20227;-85
2020/12/24 12:18:36;;;;;;;0.00;0.00;;;10.00;99.90;;;;;;5018268;28;20360;-85
2020/12/24 12:21:03;;;;;;;0.17;0.17;;;10.00;99.90;;;;;;5018227;28;20182;-84
2020/12/24 12:23:28;;;;;;;0.10;0.10;;;10.00;99.90;;;;;;5013272;28;20709;-85
2020/12/24 12:25:54;;;;;;;0.00;0.00;;;10.00;99.90;;;;;;5018598;28;20179;-84
2020/12/24 12:28:20;;;;;;;0.10;0.10;;;10.00;99.90;;;;;;5034830;28;20196;-85
2020/12/24 12:30:45;;;;;;;0.00;0.00;;;10.10;99.90;;;;;;5034586;28;20383;-84
2020/12/24 12:33:11;;;;;;;0.10;0.10;;;10.20;99.90;;;;;;5016796;28;20601;-84
2020/12/24 12:35:36;;;;;;;0.10;0.10;;;10.30;99.90;;;;;;5036312;28;20175;-85
2020/12/24 12:38:02;;;;;;;0.30;0.30;;;10.30;99.90;;;;;;5017194;28;20200;-84
2020/12/24 12:40:28;;;;;;;0.10;0.10;;;10.50;99.90;;;;;;5035565;28;20237;-84
2020/12/24 12:42:54;;;;;;;0.00;0.00;;;10.70;99.90;;;;;;5019679;28;20219;-84
2020/12/24 12:45:19;;;;;;;0.10;0.10;;;11.00;99.90;;;;;;5036910;28;20658;-84
2020/12/24 12:47:45;;;;;;;0.10;0.10;;;11.00;99.90;;;;;;5018280;28;20188;-84
2020/12/24 12:50:12;;;;;;;0.00;0.00;;;11.30;99.90;;;;;;5036820;28;20656;-84
2020/12/24 12:52:38;;;;;;;0.10;0.10;;;11.60;99.90;;;;;;5018159;28;20309;-84
2020/12/24 12:55:05;;;;;;;0.10;0.10;;;11.70;99.90;;;;;;5036999;28;20706;-85
2020/12/24 12:57:30;;;;;;;0.00;0.00;;;11.90;99.90;;;;;;5018215;28;20189;-85
2020/12/24 12:59:56;;;;;;;0.10;0.10;;;11.80;99.90;;;;;;5019093;28;20543;-85